Las Vegas, Nevada
Traffic Map
Current Weather Conditions
Las Vegas, Nevada
Clear
Clear
82°
Feels Like: 82°
Wind Chill: 82° Ceiling: Unl
Heat Index: 82° Visibility: 10mi
Dew Point: 30° Wind: 0mph
Humidity: 15% Direction: ° ()
Pressure: 29.77in Gusts: 0mph
Raw Report DataKLAS 241356Z 00000KT 10SM CLR 28/M01 A2977 RMK AO2 SLP050 T02781011
Traffic Incident Summary
Active as of:
Severity:
Category:
InformationThere was an issue retrieving the traffic information for this location. Please try a different location or try again shortly.
Advertisements
Track Severe Weather on mobile